Time;durP1;ratioP1;P1;durP2;ratioP2;P2;SDS_P1;SDS_P2;PMS_P1;PMS_P2;Temp;Humidity;BMP_temperature;BMP_pressure;BME280_temperature;BME280_humidity;BME280_pressure;Samples;Min_cycle;Max_cycle;Signal;HPM_P1;HPM_P2
2021/12/23 00:00:44;;;;;;;35.57;24.73;;;1.40;79.10;;;;;;5038500;28;20269;-83
2021/12/23 00:03:09;;;;;;;35.00;24.20;;;1.30;75.80;;;;;;5038997;28;20169;-85
2021/12/23 00:05:35;;;;;;;37.37;24.63;;;1.40;76.60;;;;;;5037684;28;20173;-85
2021/12/23 00:08:04;;;;;;;38.43;26.37;;;1.40;74.00;;;;;;5038527;28;20629;-82
2021/12/23 00:10:32;;;;;;;39.33;24.63;;;1.30;74.10;;;;;;5039033;28;20189;-84
2021/12/23 00:13:02;;;;;;;38.20;25.37;;;1.10;77.70;;;;;;5040590;28;20170;-86
2021/12/23 00:16:01;;;;;;;35.83;23.77;;;1.20;79.00;;;;;;5043563;28;20237;-85
2021/12/23 00:23:42;;;;;;;39.80;24.87;;;1.00;80.60;;;;;;5056920;28;20199;-85
2021/12/23 00:26:14;;;;;;;38.33;24.77;;;1.10;81.80;;;;;;5049483;28;20185;-84
2021/12/23 00:28:40;;;;;;;43.43;25.43;;;1.00;82.10;;;;;;5042965;28;20210;-84
2021/12/23 00:31:14;;;;;;;37.03;24.00;;;1.10;83.10;;;;;;5036022;28;20185;-80
2021/12/23 00:33:40;;;;;;;39.87;24.63;;;1.10;83.30;;;;;;5051119;28;20685;-79
2021/12/23 00:36:08;;;;;;;40.33;24.43;;;1.10;82.00;;;;;;5035902;28;20300;-84
2021/12/23 00:38:38;;;;;;;39.67;24.63;;;1.20;83.40;;;;;;5036514;28;20205;-86
2021/12/23 00:41:04;;;;;;;41.33;25.57;;;1.00;85.30;;;;;;5036558;28;20268;-86
2021/12/23 00:43:31;;;;;;;40.53;23.93;;;1.00;86.30;;;;;;5036497;28;20181;-86
2021/12/23 00:45:57;;;;;;;36.80;23.47;;;1.00;86.40;;;;;;5039842;28;20169;-85
2021/12/23 00:48:23;;;;;;;39.37;24.33;;;0.90;87.50;;;;;;5054183;28;20180;-85
2021/12/23 00:50:49;;;;;;;40.70;24.77;;;0.90;89.40;;;;;;5053309;28;20181;-85
2021/12/23 00:53:20;;;;;;;40.57;25.13;;;1.00;90.10;;;;;;5041675;28;20248;-85
2021/12/23 00:55:52;;;;;;;40.80;24.43;;;1.00;90.20;;;;;;5039451;28;20209;-85
2021/12/23 00:58:18;;;;;;;42.00;25.53;;;1.00;90.00;;;;;;5045693;28;20245;-81
2021/12/23 01:00:45;;;;;;;42.70;25.57;;;1.00;90.00;;;;;;5058528;28;20189;-77
2021/12/23 01:03:11;;;;;;;39.97;25.43;;;0.90;89.90;;;;;;5052599;28;20619;-81
2021/12/23 01:05:43;;;;;;;42.97;27.20;;;1.10;90.40;;;;;;5045479;28;20200;-84
2021/12/23 01:08:26;;;;;;;46.17;25.73;;;1.00;88.50;;;;;;5038355;28;20201;-84
2021/12/23 01:10:56;;;;;;;41.30;25.77;;;0.90;89.30;;;;;;5046647;28;20192;-77
2021/12/23 01:13:29;;;;;;;44.60;26.20;;;1.00;90.50;;;;;;5056824;28;20177;-80
2021/12/23 01:16:02;;;;;;;42.90;24.77;;;1.10;90.50;;;;;;5054252;28;20228;-80
2021/12/23 01:18:32;;;;;;;37.97;23.90;;;1.10;89.90;;;;;;5058205;28;20162;-77
2021/12/23 01:21:16;;;;;;;43.87;24.40;;;1.10;90.20;;;;;;5057482;28;20166;-79
2021/12/23 01:23:50;;;;;;;39.17;22.30;;;1.10;90.40;;;;;;5068133;28;20161;-80
2021/12/23 01:26:21;;;;;;;40.60;23.57;;;1.10;90.60;;;;;;5038241;28;20179;-84
2021/12/23 01:28:57;;;;;;;44.23;24.63;;;1.00;91.00;;;;;;5038011;28;20200;-86
2021/12/23 01:31:26;;;;;;;43.67;25.40;;;1.00;91.30;;;;;;5037339;28;20165;-85
2021/12/23 01:33:53;;;;;;;44.57;24.30;;;1.10;91.90;;;;;;5036044;28;20162;-84
2021/12/23 01:36:18;;;;;;;45.00;25.67;;;1.10;91.30;;;;;;5037669;28;20182;-86
2021/12/23 01:38:44;;;;;;;43.77;25.10;;;1.10;91.60;;;;;;5037209;28;20495;-83
2021/12/23 01:41:10;;;;;;;43.43;24.23;;;1.10;92.30;;;;;;5038097;28;20210;-84
2021/12/23 01:43:36;;;;;;;43.87;25.40;;;1.20;92.30;;;;;;5037452;28;20174;-86
2021/12/23 01:46:02;;;;;;;40.87;24.20;;;1.20;91.40;;;;;;5052559;28;20535;-84
2021/12/23 01:48:29;;;;;;;44.40;24.93;;;1.30;91.20;;;;;;5036011;28;20200;-84
2021/12/23 01:50:55;;;;;;;42.37;24.57;;;1.30;91.10;;;;;;5035931;28;20169;-84
2021/12/23 01:53:21;;;;;;;44.57;26.47;;;1.20;91.50;;;;;;5050666;28;20204;-84
2021/12/23 01:55:47;;;;;;;46.13;24.47;;;1.20;92.00;;;;;;5038597;28;20193;-82
2021/12/23 01:58:14;;;;;;;41.33;25.23;;;1.20;92.30;;;;;;5057667;28;20170;-78
2021/12/23 02:00:43;;;;;;;45.40;25.10;;;1.20;92.50;;;;;;5051447;28;20198;-79
2021/12/23 02:03:10;;;;;;;42.80;24.20;;;1.10;92.90;;;;;;5032383;28;20515;-84
2021/12/23 02:05:39;;;;;;;42.00;25.43;;;1.10;93.50;;;;;;5050175;28;20194;-78
2021/12/23 02:08:05;;;;;;;46.63;26.53;;;1.20;93.70;;;;;;5054817;28;20222;-80
2021/12/23 02:10:31;;;;;;;43.43;25.97;;;1.20;93.70;;;;;;5069966;28;20626;-80
2021/12/23 02:13:09;;;;;;;44.10;25.80;;;1.20;93.90;;;;;;5042434;28;20174;-83
2021/12/23 02:15:36;;;;;;;42.97;25.40;;;1.30;93.90;;;;;;5057321;28;20200;-80
2021/12/23 02:18:06;;;;;;;43.40;25.00;;;1.30;93.70;;;;;;5070973;28;20177;-83
2021/12/23 02:20:34;;;;;;;44.50;25.10;;;1.30;93.50;;;;;;5051892;28;20173;-84
2021/12/23 02:23:01;;;;;;;41.90;24.47;;;1.30;93.90;;;;;;5052628;28;20193;-84
2021/12/23 02:25:28;;;;;;;42.63;24.27;;;1.30;93.40;;;;;;5037626;28;20170;-85
2021/12/23 02:27:54;;;;;;;40.23;23.77;;;1.40;93.50;;;;;;5035292;28;20255;-84
2021/12/23 02:30:40;;;;;;;40.87;23.83;;;1.40;92.70;;;;;;5039207;28;20265;-85
2021/12/23 02:33:08;;;;;;;45.30;25.10;;;1.30;92.80;;;;;;5039776;28;20260;-84
2021/12/23 02:35:34;;;;;;;42.87;26.17;;;1.40;92.90;;;;;;5054195;28;20217;-78
2021/12/23 02:38:00;;;;;;;42.00;23.90;;;1.40;92.40;;;;;;5037878;28;20629;-77
2021/12/23 02:40:43;;;;;;;40.50;23.50;;;1.40;92.80;;;;;;5038333;28;20204;-85
2021/12/23 02:43:10;;;;;;;39.40;21.90;;;1.40;92.10;;;;;;5038203;28;20231;-85
2021/12/23 02:45:36;;;;;;;41.67;22.93;;;1.40;92.00;;;;;;5038459;28;20173;-84
2021/12/23 02:48:03;;;;;;;42.20;24.23;;;1.30;92.20;;;;;;5044313;28;20177;-84
2021/12/23 02:50:30;;;;;;;43.00;22.63;;;1.30;92.80;;;;;;5041559;28;20235;-84
2021/12/23 02:52:58;;;;;;;40.03;23.90;;;1.30;92.90;;;;;;5040284;28;20202;-83
2021/12/23 02:55:24;;;;;;;39.47;23.60;;;1.20;93.50;;;;;;5030046;28;20221;-84
2021/12/23 02:57:49;;;;;;;39.87;22.87;;;1.20;93.90;;;;;;5031946;28;20169;-84
2021/12/23 03:00:16;;;;;;;44.83;24.20;;;1.20;93.90;;;;;;5039586;28;20235;-83
2021/12/23 03:02:41;;;;;;;38.20;22.07;;;1.20;94.20;;;;;;5039816;28;20181;-85
2021/12/23 03:05:08;;;;;;;42.30;23.97;;;1.20;94.40;;;;;;5038457;28;20271;-84
2021/12/23 03:07:35;;;;;;;43.63;24.03;;;1.20;94.50;;;;;;5037716;28;20599;-86
2021/12/23 03:10:03;;;;;;;39.53;23.67;;;1.30;94.60;;;;;;5040962;28;20178;-84
2021/12/23 03:12:29;;;;;;;40.70;22.80;;;1.30;94.50;;;;;;5056235;28;20241;-80
2021/12/23 03:14:54;;;;;;;39.67;23.43;;;1.30;94.20;;;;;;5059000;28;20197;-77
2021/12/23 03:17:20;;;;;;;43.57;24.27;;;1.20;94.60;;;;;;5075991;28;20166;-79
2021/12/23 03:19:48;;;;;;;45.30;22.90;;;1.20;94.40;;;;;;5053125;28;20182;-77
2021/12/23 03:22:18;;;;;;;39.57;22.73;;;1.20;94.60;;;;;;5046973;28;20519;-81
2021/12/23 03:24:45;;;;;;;39.13;23.83;;;1.30;94.70;;;;;;5040058;28;20173;-83
2021/12/23 03:27:11;;;;;;;43.60;23.97;;;1.20;94.60;;;;;;5037841;28;20185;-85
2021/12/23 03:29:37;;;;;;;39.03;22.43;;;1.20;94.80;;;;;;5037628;28;20174;-84
2021/12/23 03:32:03;;;;;;;40.47;22.93;;;1.30;94.80;;;;;;5045760;28;20181;-83
2021/12/23 03:34:29;;;;;;;36.03;21.73;;;1.30;94.80;;;;;;5057453;28;20189;-83
2021/12/23 03:36:55;;;;;;;39.70;22.93;;;1.30;94.70;;;;;;5044345;28;20174;-85
2021/12/23 03:39:27;;;;;;;37.40;22.33;;;1.30;94.60;;;;;;5038324;28;20177;-85
2021/12/23 03:41:53;;;;;;;39.43;22.57;;;1.20;94.90;;;;;;5039626;28;20176;-77
2021/12/23 03:44:18;;;;;;;42.67;22.33;;;1.30;95.10;;;;;;5053799;28;20194;-77
2021/12/23 03:46:44;;;;;;;37.37;22.13;;;1.30;95.20;;;;;;5057733;28;20169;-79
2021/12/23 03:49:10;;;;;;;39.83;22.97;;;1.30;95.40;;;;;;5056588;28;20189;-80
2021/12/23 03:51:36;;;;;;;40.00;22.83;;;1.40;95.30;;;;;;5054427;28;20212;-78
2021/12/23 03:54:03;;;;;;;38.60;22.57;;;1.40;94.90;;;;;;5044168;28;20158;-78
2021/12/23 03:56:39;;;;;;;38.67;22.60;;;1.40;95.00;;;;;;5039951;28;20546;-85
2021/12/23 03:59:05;;;;;;;38.47;21.70;;;1.50;94.80;;;;;;5051154;28;20602;-84
2021/12/23 04:01:37;;;;;;;38.70;20.60;;;1.40;94.50;;;;;;5053872;28;20207;-83
2021/12/23 04:04:05;;;;;;;39.07;22.40;;;1.30;94.70;;;;;;5037714;28;20236;-83
2021/12/23 04:06:30;;;;;;;43.27;23.00;;;1.30;95.20;;;;;;5035758;28;20697;-78
2021/12/23 04:08:56;;;;;;;38.90;22.63;;;1.30;95.50;;;;;;5050805;28;20212;-79
2021/12/23 04:11:22;;;;;;;47.83;21.90;;;1.30;95.60;;;;;;5037313;28;20535;-86
2021/12/23 04:13:48;;;;;;;43.60;22.23;;;1.20;95.70;;;;;;5046200;28;20162;-78
2021/12/23 04:16:16;;;;;;;39.03;21.43;;;1.30;95.90;;;;;;5074334;28;20247;-83
2021/12/23 04:18:45;;;;;;;42.23;22.73;;;1.30;96.00;;;;;;5040372;28;20195;-83
2021/12/23 04:21:14;;;;;;;40.97;23.37;;;1.30;96.00;;;;;;5017022;28;20165;-84
2021/12/23 04:23:40;;;;;;;41.57;22.23;;;1.30;96.10;;;;;;5027038;28;20157;-81
2021/12/23 04:26:09;;;;;;;38.30;21.77;;;1.30;96.10;;;;;;5046499;28;20170;-80
2021/12/23 04:28:44;;;;;;;43.37;23.70;;;1.30;96.20;;;;;;5050094;28;20177;-80
2021/12/23 04:31:17;;;;;;;40.50;22.20;;;1.30;96.20;;;;;;5058790;28;20157;-81
2021/12/23 04:33:45;;;;;;;40.17;21.57;;;1.30;96.10;;;;;;5037297;28;20170;-78
2021/12/23 04:36:15;;;;;;;39.70;21.23;;;1.30;95.90;;;;;;5056496;28;20202;-76
2021/12/23 04:38:43;;;;;;;40.20;21.13;;;1.30;95.90;;;;;;5055046;28;20173;-75
2021/12/23 04:41:10;;;;;;;43.90;24.00;;;1.30;96.10;;;;;;5055491;28;20236;-82
2021/12/23 04:43:39;;;;;;;40.40;21.87;;;1.30;96.40;;;;;;5045177;28;20168;-84
2021/12/23 04:46:56;;;;;;;40.97;22.27;;;1.50;96.00;;;;;;5039491;28;20292;-83
2021/12/23 04:49:34;;;;;;;38.73;21.70;;;1.40;95.90;;;;;;5035217;28;20162;-77
2021/12/23 04:52:00;;;;;;;40.57;22.53;;;1.40;95.70;;;;;;5033997;28;20597;-78
2021/12/23 04:54:27;;;;;;;41.60;22.50;;;1.40;95.60;;;;;;5049572;28;20189;-85
2021/12/23 04:56:52;;;;;;;42.63;23.70;;;1.50;95.50;;;;;;5034848;28;20177;-85
2021/12/23 04:59:18;;;;;;;40.73;21.90;;;1.50;95.60;;;;;;5050559;28;20201;-85
2021/12/23 05:01:44;;;;;;;39.63;23.43;;;1.50;95.60;;;;;;5033640;28;20260;-77
2021/12/23 05:04:09;;;;;;;42.83;23.70;;;1.50;95.70;;;;;;5033752;28;20177;-78
2021/12/23 05:06:35;;;;;;;35.30;22.17;;;1.60;95.40;;;;;;5049257;28;20181;-84
2021/12/23 05:09:01;;;;;;;38.90;22.10;;;1.70;95.20;;;;;;5034671;28;20626;-83
2021/12/23 05:11:33;;;;;;;38.77;22.23;;;1.70;94.30;;;;;;5033917;28;20538;-76
2021/12/23 05:13:59;;;;;;;39.00;22.07;;;1.80;94.00;;;;;;5034616;28;20165;-84
2021/12/23 05:16:25;;;;;;;36.13;21.83;;;1.90;93.30;;;;;;5034490;28;20182;-82
2021/12/23 05:18:50;;;;;;;41.87;22.53;;;1.90;92.40;;;;;;5034406;28;20291;-83
2021/12/23 05:21:16;;;;;;;38.30;21.90;;;1.90;92.10;;;;;;5035867;28;20543;-81
2021/12/23 05:23:42;;;;;;;39.93;22.07;;;1.90;91.70;;;;;;5036901;28;20192;-82
2021/12/23 05:26:08;;;;;;;35.20;21.90;;;1.90;92.00;;;;;;5048732;28;20205;-84
2021/12/23 05:28:35;;;;;;;36.70;20.40;;;2.00;91.60;;;;;;5030579;28;20182;-84
2021/12/23 05:31:01;;;;;;;37.80;22.80;;;2.10;91.50;;;;;;5046309;28;20204;-85
2021/12/23 05:33:28;;;;;;;37.33;22.33;;;2.10;90.20;;;;;;5047107;28;20161;-84
2021/12/23 05:35:55;;;;;;;38.37;21.50;;;2.10;89.90;;;;;;5042265;28;20242;-78
2021/12/23 05:38:26;;;;;;;41.10;22.63;;;2.10;89.80;;;;;;5034590;28;20244;-84
2021/12/23 05:40:53;;;;;;;38.40;22.03;;;2.20;89.00;;;;;;5034702;28;20657;-84
2021/12/23 05:43:19;;;;;;;37.30;22.57;;;2.30;88.90;;;;;;5033294;28;20189;-85
2021/12/23 05:45:45;;;;;;;35.10;20.67;;;2.20;88.70;;;;;;5034010;28;20612;-84
2021/12/23 05:48:12;;;;;;;37.40;21.60;;;2.30;88.80;;;;;;5034479;28;20196;-83
2021/12/23 05:50:38;;;;;;;35.37;21.23;;;2.30;87.50;;;;;;5034527;28;20181;-81
2021/12/23 05:53:03;;;;;;;38.23;21.77;;;2.30;86.80;;;;;;5034463;28;20620;-79
2021/12/23 05:55:29;;;;;;;35.87;20.60;;;2.20;88.20;;;;;;5050123;28;20405;-77
2021/12/23 05:57:55;;;;;;;37.80;21.87;;;2.20;88.90;;;;;;5051892;28;20188;-77
2021/12/23 06:00:24;;;;;;;37.70;22.13;;;2.30;90.00;;;;;;5038819;28;20698;-83
2021/12/23 06:02:54;;;;;;;37.40;20.57;;;2.20;90.40;;;;;;5046496;28;20185;-83
2021/12/23 06:05:23;;;;;;;37.13;21.97;;;2.20;91.10;;;;;;5039643;28;20162;-84
2021/12/23 06:07:49;;;;;;;39.53;22.07;;;2.30;91.10;;;;;;5037847;28;20212;-82
2021/12/23 06:10:16;;;;;;;36.80;21.50;;;2.40;90.90;;;;;;5038295;28;20567;-85
2021/12/23 06:12:43;;;;;;;35.27;21.50;;;2.50;90.50;;;;;;5042977;28;20169;-78
2021/12/23 06:15:10;;;;;;;38.90;22.43;;;2.50;89.90;;;;;;5060954;28;20497;-81
2021/12/23 06:17:36;;;;;;;38.50;21.37;;;2.50;90.00;;;;;;5044774;28;20184;-85
2021/12/23 06:20:06;;;;;;;34.43;20.67;;;2.50;90.50;;;;;;5041127;28;20626;-84
2021/12/23 06:22:35;;;;;;;37.77;21.57;;;2.60;90.80;;;;;;5038885;28;20193;-83
2021/12/23 06:25:02;;;;;;;38.90;22.20;;;2.80;89.90;;;;;;5037433;28;20212;-83
2021/12/23 06:27:27;;;;;;;38.07;21.50;;;2.80;86.80;;;;;;5056668;28;20181;-81
2021/12/23 06:29:54;;;;;;;38.03;20.53;;;2.80;87.10;;;;;;5056787;28;20200;-78
2021/12/23 06:32:26;;;;;;;36.00;19.87;;;2.80;87.10;;;;;;5048956;28;20166;-83
2021/12/23 06:35:22;;;;;;;34.57;20.60;;;2.80;87.10;;;;;;5036782;28;20213;-84
2021/12/23 06:37:48;;;;;;;36.63;21.03;;;2.90;87.90;;;;;;5037477;28;20650;-84
2021/12/23 06:40:14;;;;;;;32.83;21.20;;;3.00;86.70;;;;;;5038526;28;20169;-84
2021/12/23 06:42:39;;;;;;;37.03;20.57;;;3.10;84.80;;;;;;5039830;28;20222;-86
2021/12/23 06:45:06;;;;;;;38.10;21.70;;;3.20;84.30;;;;;;5060638;28;20174;-79
2021/12/23 06:47:35;;;;;;;35.87;20.67;;;3.40;80.70;;;;;;5056849;28;20201;-78
2021/12/23 06:50:09;;;;;;;37.27;20.63;;;3.30;76.50;;;;;;5050652;28;20182;-81
2021/12/23 06:52:37;;;;;;;35.40;21.13;;;3.40;78.50;;;;;;5037408;28;20197;-81
2021/12/23 06:55:04;;;;;;;35.70;20.33;;;3.40;76.90;;;;;;5038055;28;20261;-84
2021/12/23 06:57:30;;;;;;;36.37;19.87;;;3.60;76.10;;;;;;5037896;28;20180;-81
2021/12/23 06:59:56;;;;;;;31.30;19.50;;;3.70;70.60;;;;;;5037537;28;20290;-82
2021/12/23 07:02:24;;;;;;;31.80;19.73;;;3.60;68.30;;;;;;5037621;28;20193;-82
2021/12/23 07:04:49;;;;;;;36.07;19.57;;;3.40;71.50;;;;;;5037779;28;20174;-83
2021/12/23 07:07:27;;;;;;;34.03;20.27;;;3.40;75.10;;;;;;5037344;28;20169;-80
2021/12/23 07:09:54;;;;;;;39.50;22.30;;;3.50;78.40;;;;;;5038200;28;20184;-85
2021/12/23 07:12:20;;;;;;;33.37;20.87;;;3.60;75.10;;;;;;5039871;28;20205;-81
2021/12/23 07:14:46;;;;;;;33.23;20.47;;;3.60;75.40;;;;;;5036896;28;20217;-84
2021/12/23 07:17:11;;;;;;;35.53;20.30;;;3.70;73.00;;;;;;5037514;28;20161;-86
2021/12/23 07:19:37;;;;;;;34.40;20.40;;;3.60;71.20;;;;;;5036673;28;20185;-83
2021/12/23 07:22:03;;;;;;;30.53;20.00;;;3.60;72.80;;;;;;5038425;28;20574;-87
2021/12/23 07:24:30;;;;;;;34.60;20.53;;;3.60;74.20;;;;;;5036977;28;20268;-83
2021/12/23 07:26:56;;;;;;;32.83;20.30;;;3.70;75.90;;;;;;5036958;28;20177;-85
2021/12/23 07:29:21;;;;;;;34.30;20.23;;;3.90;73.70;;;;;;5036960;28;20196;-85
2021/12/23 07:31:47;;;;;;;32.20;20.83;;;4.00;66.20;;;;;;5038316;28;20169;-86
2021/12/23 07:34:13;;;;;;;34.17;22.03;;;3.90;64.60;;;;;;5037386;28;20579;-84
2021/12/23 07:36:40;;;;;;;33.27;21.53;;;3.70;68.10;;;;;;5037569;28;20211;-86
2021/12/23 07:39:07;;;;;;;37.40;20.80;;;3.70;72.80;;;;;;5038757;28;20622;-86
2021/12/23 07:41:33;;;;;;;30.73;20.60;;;3.80;74.40;;;;;;5039122;28;20537;-83
2021/12/23 07:44:03;;;;;;;30.87;19.43;;;3.90;72.80;;;;;;5052656;28;20510;-81
2021/12/23 07:46:33;;;;;;;33.60;19.93;;;4.00;64.30;;;;;;5037160;28;20191;-87
2021/12/23 07:48:59;;;;;;;30.57;18.93;;;3.90;66.60;;;;;;5036444;28;20182;-85
2021/12/23 07:51:26;;;;;;;31.10;19.07;;;3.80;69.80;;;;;;5037101;28;20201;-87
2021/12/23 07:53:53;;;;;;;33.73;19.30;;;3.80;73.40;;;;;;5036794;28;20229;-82
2021/12/23 07:56:20;;;;;;;34.23;19.43;;;3.90;73.20;;;;;;5040869;28;20197;-84
2021/12/23 07:58:47;;;;;;;29.33;18.67;;;3.90;73.60;;;;;;5038252;28;20594;-85
2021/12/23 08:01:12;;;;;;;27.87;18.00;;;3.90;71.80;;;;;;5037332;28;20197;-85
2021/12/23 08:03:39;;;;;;;31.27;20.10;;;4.00;73.70;;;;;;5038750;28;20165;-85
2021/12/23 08:06:05;;;;;;;34.03;19.23;;;4.10;71.60;;;;;;5055626;28;20188;-83
2021/12/23 08:08:31;;;;;;;32.47;18.43;;;4.20;71.20;;;;;;5056865;28;20173;-83
2021/12/23 08:10:59;;;;;;;31.00;19.33;;;4.20;66.60;;;;;;5053067;28;20173;-80
2021/12/23 08:13:28;;;;;;;30.47;18.33;;;4.30;65.30;;;;;;5054351;28;20205;-79
2021/12/23 08:15:57;;;;;;;31.67;17.43;;;4.30;63.50;;;;;;5040791;28;20383;-81
2021/12/23 08:18:40;;;;;;;27.50;17.70;;;4.30;61.70;;;;;;5045071;28;20158;-84
2021/12/23 08:21:44;;;;;;;27.33;18.00;;;4.30;62.80;;;;;;5039948;28;20162;-82
2021/12/23 08:24:55;;;;;;;28.80;18.53;;;4.30;63.10;;;;;;5039549;28;20245;-82
2021/12/23 08:27:27;;;;;;;26.80;17.17;;;4.30;60.30;;;;;;5050662;28;20195;-81
2021/12/23 08:29:52;;;;;;;28.27;17.07;;;4.40;56.10;;;;;;5041363;28;20177;-82
2021/12/23 08:32:20;;;;;;;28.90;17.27;;;4.40;58.00;;;;;;5036993;28;20251;-85
2021/12/23 08:34:47;;;;;;;26.90;18.20;;;4.30;58.70;;;;;;5039028;28;20745;-84
2021/12/23 08:37:14;;;;;;;32.17;17.47;;;4.40;56.70;;;;;;5041410;28;20176;-83
2021/12/23 08:39:41;;;;;;;27.53;17.20;;;4.40;55.70;;;;;;5033407;28;20182;-84
2021/12/23 08:42:07;;;;;;;27.33;16.70;;;4.30;55.70;;;;;;5044780;28;20249;-83
2021/12/23 08:44:34;;;;;;;24.43;15.93;;;4.40;55.90;;;;;;5055342;28;20217;-80
2021/12/23 08:47:00;;;;;;;28.17;17.60;;;4.50;50.90;;;;;;5052824;28;20177;-85
2021/12/23 08:49:26;;;;;;;26.53;16.90;;;4.50;49.00;;;;;;5037555;28;20266;-85
2021/12/23 08:51:55;;;;;;;26.67;16.03;;;4.60;42.70;;;;;;5020108;28;20206;-82
2021/12/23 08:54:23;;;;;;;27.47;16.57;;;4.70;37.90;;;;;;5033814;28;20197;-86
2021/12/23 08:56:48;;;;;;;24.10;15.80;;;4.80;36.90;;;;;;5045237;28;20189;-82
2021/12/23 08:59:14;;;;;;;26.07;16.10;;;4.90;30.90;;;;;;5027230;28;20217;-85
2021/12/23 09:01:42;;;;;;;27.97;17.00;;;4.90;28.70;;;;;;5043904;28;20177;-84
2021/12/23 09:04:08;;;;;;;27.50;17.40;;;4.90;27.00;;;;;;5051820;28;20244;-79
2021/12/23 09:06:34;;;;;;;23.70;15.33;;;4.90;25.80;;;;;;5049166;28;20194;-79
2021/12/23 09:09:03;;;;;;;28.13;17.30;;;5.00;26.60;;;;;;5050355;28;20223;-79
2021/12/23 09:11:55;;;;;;;25.63;16.47;;;5.00;26.00;;;;;;5052225;28;20177;-80
2021/12/23 09:14:27;;;;;;;25.93;15.50;;;5.00;27.80;;;;;;5053260;28;20153;-78
2021/12/23 09:16:53;;;;;;;24.40;15.80;;;5.00;28.10;;;;;;5043676;28;20170;-81
2021/12/23 09:19:33;;;;;;;23.80;17.17;;;5.00;28.20;;;;;;5052769;28;20180;-83
2021/12/23 09:22:09;;;;;;;25.90;16.93;;;5.10;28.60;;;;;;5048010;28;20178;-85
2021/12/23 09:25:02;;;;;;;25.80;17.00;;;5.20;24.90;;;;;;5052991;28;20154;-79
2021/12/23 09:32:52;;;;;;;25.40;16.53;;;5.20;25.50;;;;;;5036716;28;20178;-83
2021/12/23 09:35:21;;;;;;;25.13;16.53;;;5.20;27.20;;;;;;5040315;28;20210;-82
2021/12/23 09:37:49;;;;;;;26.63;16.63;;;5.30;25.40;;;;;;5030271;28;20228;-82
2021/12/23 09:40:17;;;;;;;29.03;17.87;;;5.40;24.80;;;;;;5024355;28;20174;-86
2021/12/23 09:42:46;;;;;;;25.60;17.73;;;5.40;24.80;;;;;;5038828;28;20173;-84
2021/12/23 09:45:17;;;;;;;25.17;17.60;;;5.50;24.30;;;;;;5030240;28;20597;-85
2021/12/23 09:47:44;;;;;;;23.50;17.00;;;5.30;27.10;;;;;;5029726;28;20182;-82
2021/12/23 09:50:14;;;;;;;27.57;17.37;;;5.20;32.90;;;;;;5045354;28;20173;-86
2021/12/23 09:52:45;;;;;;;29.40;17.27;;;5.30;35.90;;;;;;5034303;28;20225;-82
2021/12/23 09:55:13;;;;;;;28.33;17.43;;;5.30;35.60;;;;;;5044219;28;20202;-78
2021/12/23 09:57:40;;;;;;;26.93;16.97;;;5.30;37.90;;;;;;5030781;28;20185;-81
2021/12/23 10:00:11;;;;;;;24.73;17.00;;;5.40;34.90;;;;;;5049950;28;20184;-85
2021/12/23 10:02:40;;;;;;;29.20;19.23;;;5.40;35.90;;;;;;5030805;28;20173;-83
2021/12/23 10:05:09;;;;;;;24.83;17.33;;;5.40;37.90;;;;;;5032016;28;20178;-85
2021/12/23 10:07:36;;;;;;;33.20;18.60;;;5.30;39.90;;;;;;5031480;28;20174;-87
2021/12/23 10:10:10;;;;;;;25.50;17.63;;;5.30;42.60;;;;;;5046011;28;20182;-85
2021/12/23 10:13:10;;;;;;;26.47;17.57;;;5.40;41.40;;;;;;5020809;28;20178;-82
2021/12/23 10:32:55;;;;;;;27.13;17.80;;;5.30;51.00;;;;;;5026189;28;20227;-84
2021/12/23 10:38:06;;;;;;;28.77;17.63;;;5.40;49.30;;;;;;5036840;28;20261;-84
2021/12/23 10:40:34;;;;;;;31.63;18.77;;;5.40;50.00;;;;;;5022389;28;20228;-85
2021/12/23 10:43:00;;;;;;;26.27;17.83;;;5.50;48.20;;;;;;5029135;28;20201;-83
2021/12/23 10:45:36;;;;;;;27.83;17.93;;;5.50;46.10;;;;;;5034441;28;20550;-86
2021/12/23 10:48:09;;;;;;;28.83;19.00;;;5.50;47.80;;;;;;5035567;28;20177;-85
2021/12/23 10:50:43;;;;;;;28.20;18.37;;;5.50;50.20;;;;;;5032769;28;20306;-83
2021/12/23 10:53:25;;;;;;;25.20;17.60;;;5.50;48.90;;;;;;5045944;28;20236;-84
2021/12/23 10:59:05;;;;;;;27.60;17.87;;;5.60;49.30;;;;;;5047408;28;20266;-82
2021/12/23 11:02:21;;;;;;;29.07;18.73;;;5.60;50.00;;;;;;5028646;28;20182;-84
2021/12/23 11:28:20;;;;;;;28.73;18.67;;;5.80;49.60;;;;;;5029835;28;20204;-81
2021/12/23 11:36:20;;;;;;;34.77;20.80;;;6.10;42.10;;;;;;5037117;28;20220;-84
2021/12/23 11:43:55;;;;;;;30.30;20.37;;;6.30;39.00;;;;;;5046403;28;20188;-82
2021/12/23 11:46:38;;;;;;;29.10;19.33;;;6.40;38.00;;;;;;5035184;28;20178;-78
2021/12/23 11:49:08;;;;;;;26.87;18.77;;;6.40;36.90;;;;;;5045275;28;20153;-81
2021/12/23 11:51:51;;;;;;;29.40;20.17;;;6.40;38.60;;;;;;5052844;28;20222;-80
2021/12/23 11:54:34;;;;;;;29.07;20.43;;;6.50;38.60;;;;;;5043854;28;20165;-79
2021/12/23 11:57:07;;;;;;;28.87;19.33;;;6.50;34.60;;;;;;5041547;28;20178;-83
2021/12/23 12:00:19;;;;;;;27.40;18.30;;;6.50;36.00;;;;;;5025628;28;20515;-84
2021/12/23 12:03:03;;;;;;;29.73;20.43;;;6.40;39.70;;;;;;5036847;28;20564;-81
2021/12/23 12:05:32;;;;;;;26.83;18.53;;;6.40;46.30;;;;;;5057464;28;20166;-80
2021/12/23 12:08:14;;;;;;;30.30;18.87;;;6.40;42.80;;;;;;5057132;28;20162;-82
2021/12/23 12:10:45;;;;;;;30.53;20.00;;;6.40;44.10;;;;;;5048728;28;20173;-79
2021/12/23 12:13:14;;;;;;;30.77;19.63;;;6.40;49.20;;;;;;5037592;28;20162;-81
2021/12/23 12:16:23;;;;;;;30.80;20.13;;;6.40;47.60;;;;;;5031634;28;20216;-85
2021/12/23 12:18:54;;;;;;;31.77;21.80;;;6.40;49.50;;;;;;5044887;28;20198;-85
2021/12/23 12:21:31;;;;;;;29.90;20.23;;;6.40;54.00;;;;;;5046095;28;20185;-82
2021/12/23 12:24:15;;;;;;;26.50;19.83;;;6.50;49.90;;;;;;5050098;28;20166;-84
2021/12/23 12:27:02;;;;;;;31.20;19.67;;;6.40;54.30;;;;;;5043921;28;20189;-85
2021/12/23 12:29:40;;;;;;;33.37;20.90;;;6.30;60.00;;;;;;5058133;28;20172;-85
2021/12/23 12:32:05;;;;;;;30.67;21.20;;;6.30;61.80;;;;;;5056541;28;20161;-84
2021/12/23 12:34:37;;;;;;;31.30;20.00;;;6.30;64.20;;;;;;5046356;28;20190;-83
2021/12/23 12:37:13;;;;;;;32.40;20.53;;;6.30;64.20;;;;;;5039108;28;20198;-85
2021/12/23 12:39:47;;;;;;;31.07;19.60;;;6.40;63.70;;;;;;5060166;28;20221;-82
2021/12/23 12:42:32;;;;;;;29.60;17.37;;;6.40;65.10;;;;;;5041955;28;20166;-85
2021/12/23 12:45:22;;;;;;;31.43;20.63;;;6.40;65.20;;;;;;5032919;28;20166;-84
2021/12/23 12:48:13;;;;;;;31.33;20.17;;;6.50;68.30;;;;;;5022980;28;20234;-84
2021/12/23 12:50:52;;;;;;;29.97;19.43;;;6.50;71.20;;;;;;5023634;28;20176;-85
2021/12/23 12:53:21;;;;;;;31.93;18.93;;;6.50;69.80;;;;;;5034238;28;20166;-83
2021/12/23 12:55:49;;;;;;;28.40;19.87;;;6.50;71.90;;;;;;5023890;28;20704;-86
2021/12/23 12:58:15;;;;;;;26.60;19.17;;;6.50;74.70;;;;;;5027120;28;20182;-85
2021/12/23 13:00:42;;;;;;;28.47;19.53;;;6.60;73.00;;;;;;5026410;28;20293;-84
2021/12/23 13:03:22;;;;;;;32.43;20.80;;;6.60;73.30;;;;;;5036763;28;20225;-86
2021/12/23 13:05:54;;;;;;;30.10;20.03;;;6.60;73.20;;;;;;5029847;28;20177;-83
2021/12/23 13:08:34;;;;;;;28.67;19.33;;;6.50;74.80;;;;;;5034624;28;20218;-85
2021/12/23 13:11:21;;;;;;;32.27;19.37;;;6.50;75.40;;;;;;5033843;28;20177;-84
2021/12/23 13:13:59;;;;;;;30.00;20.80;;;6.40;79.60;;;;;;5021499;28;20228;-86
2021/12/23 13:16:25;;;;;;;31.20;20.17;;;6.50;80.60;;;;;;5015467;28;20213;-84
2021/12/23 13:19:12;;;;;;;33.27;19.77;;;6.50;79.80;;;;;;5030055;28;20188;-85
2021/12/23 13:21:52;;;;;;;31.50;20.10;;;6.40;82.70;;;;;;5031298;28;20549;-84
2021/12/23 13:24:21;;;;;;;30.73;19.20;;;6.30;85.60;;;;;;5031997;28;20193;-84
2021/12/23 13:26:49;;;;;;;29.30;18.60;;;6.50;88.30;;;;;;5034818;28;20166;-84
2021/12/23 13:29:15;;;;;;;34.50;19.17;;;6.30;90.10;;;;;;5026759;28;20248;-85
2021/12/23 13:31:43;;;;;;;34.10;20.50;;;6.20;92.30;;;;;;5022839;28;20189;-83
2021/12/23 13:34:16;;;;;;;33.00;21.40;;;6.30;93.40;;;;;;5027725;28;20646;-83
2021/12/23 13:36:48;;;;;;;32.87;20.20;;;6.20;94.20;;;;;;5029347;28;20622;-85
2021/12/23 13:39:19;;;;;;;30.87;19.30;;;6.20;94.70;;;;;;5028081;28;20190;-86
2021/12/23 13:41:49;;;;;;;31.73;20.33;;;6.10;96.50;;;;;;5028213;28;20169;-86
2021/12/23 13:44:22;;;;;;;34.40;19.53;;;5.80;97.90;;;;;;5027746;28;20746;-85
2021/12/23 13:47:16;;;;;;;37.63;21.63;;;5.70;99.20;;;;;;5034335;28;20193;-87
2021/12/23 13:49:46;;;;;;;36.10;22.03;;;5.70;99.90;;;;;;5027571;28;20252;-87
2021/12/23 13:52:22;;;;;;;38.07;22.27;;;5.60;99.90;;;;;;5034877;28;20185;-86
2021/12/23 13:54:52;;;;;;;38.50;21.63;;;5.60;99.90;;;;;;5032684;28;20304;-86
2021/12/23 13:57:21;;;;;;;34.00;20.83;;;5.60;99.90;;;;;;5020884;28;20680;-83
2021/12/23 13:59:47;;;;;;;39.30;21.37;;;5.50;99.90;;;;;;5033354;28;20192;-86